sensor_id;sensor_type;location;lat;lon;timestamp;P1;durP1;ratioP1;P2;durP2;ratioP2
45033;SDS011;30771;47.988;-4.186;2023-06-22T06:02:52;26.73;;;16.55;;
45033;SDS011;30771;47.988;-4.186;2023-06-22T06:05:18;27.60;;;17.70;;
45033;SDS011;30771;47.988;-4.186;2023-06-22T06:07:43;24.13;;;16.10;;
45033;SDS011;30771;47.988;-4.186;2023-06-22T06:10:09;25.98;;;17.33;;
45033;SDS011;30771;47.988;-4.186;2023-06-22T06:12:34;23.52;;;16.88;;
45033;SDS011;30771;47.988;-4.186;2023-06-22T06:15:00;25.70;;;16.40;;
45033;SDS011;30771;47.988;-4.186;2023-06-22T06:17:25;26.48;;;16.50;;
45033;SDS011;30771;47.988;-4.186;2023-06-22T06:19:51;24.05;;;16.02;;
45033;SDS011;30771;47.988;-4.186;2023-06-22T06:22:16;24.40;;;16.50;;
45033;SDS011;30771;47.988;-4.186;2023-06-22T06:24:44;28.00;;;17.83;;
45033;SDS011;30771;47.988;-4.186;2023-06-22T06:27:10;24.00;;;16.77;;
45033;SDS011;30771;47.988;-4.186;2023-06-22T06:29:35;24.38;;;17.20;;
45033;SDS011;30771;47.988;-4.186;2023-06-22T06:32:01;22.58;;;16.83;;
45033;SDS011;30771;47.988;-4.186;2023-06-22T06:34:26;18.80;;;15.68;;
45033;SDS011;30771;47.988;-4.186;2023-06-22T06:36:51;22.80;;;15.70;;
45033;SDS011;30771;47.988;-4.186;2023-06-22T06:39:16;21.00;;;14.88;;
45033;SDS011;30771;47.988;-4.186;2023-06-22T06:41:42;20.67;;;14.35;;
45033;SDS011;30771;47.988;-4.186;2023-06-22T06:44:07;22.80;;;14.43;;
45033;SDS011;30771;47.988;-4.186;2023-06-22T06:46:32;20.55;;;15.05;;
45033;SDS011;30771;47.988;-4.186;2023-06-22T06:48:58;20.55;;;14.05;;
45033;SDS011;30771;47.988;-4.186;2023-06-22T06:51:23;19.27;;;14.27;;
45033;SDS011;30771;47.988;-4.186;2023-06-22T06:53:49;20.92;;;14.38;;
45033;SDS011;30771;47.988;-4.186;2023-06-22T06:56:14;21.40;;;14.48;;
45033;SDS011;30771;47.988;-4.186;2023-06-22T06:58:41;25.35;;;14.20;;
45033;SDS011;30771;47.988;-4.186;2023-06-22T07:01:06;17.55;;;13.55;;
45033;SDS011;30771;47.988;-4.186;2023-06-22T07:03:31;17.92;;;13.05;;
45033;SDS011;30771;47.988;-4.186;2023-06-22T07:05:57;15.38;;;12.90;;
45033;SDS011;30771;47.988;-4.186;2023-06-22T07:08:22;16.08;;;11.52;;
45033;SDS011;30771;47.988;-4.186;2023-06-22T07:10:47;17.35;;;12.35;;
45033;SDS011;30771;47.988;-4.186;2023-06-22T07:13:12;16.65;;;12.10;;
45033;SDS011;30771;47.988;-4.186;2023-06-22T07:15:38;12.55;;;10.88;;
45033;SDS011;30771;47.988;-4.186;2023-06-22T07:18:03;15.55;;;10.40;;
45033;SDS011;30771;47.988;-4.186;2023-06-22T07:20:28;14.23;;;11.35;;
45033;SDS011;30771;47.988;-4.186;2023-06-22T07:22:53;14.15;;;11.77;;
45033;SDS011;30771;47.988;-4.186;2023-06-22T07:25:19;15.70;;;11.07;;
45033;SDS011;30771;47.988;-4.186;2023-06-22T07:27:45;14.27;;;11.13;;
45033;SDS011;30771;47.988;-4.186;2023-06-22T07:30:12;13.70;;;9.93;;
45033;SDS011;30771;47.988;-4.186;2023-06-22T07:32:37;10.90;;;9.68;;
45033;SDS011;30771;47.988;-4.186;2023-06-22T07:35:03;11.20;;;9.75;;
45033;SDS011;30771;47.988;-4.186;2023-06-22T07:37:28;12.35;;;9.80;;
45033;SDS011;30771;47.988;-4.186;2023-06-22T07:39:54;11.80;;;9.40;;
45033;SDS011;30771;47.988;-4.186;2023-06-22T07:42:20;13.27;;;9.75;;
45033;SDS011;30771;47.988;-4.186;2023-06-22T07:44:45;10.65;;;8.70;;
45033;SDS011;30771;47.988;-4.186;2023-06-22T07:47:10;10.30;;;8.98;;
45033;SDS011;30771;47.988;-4.186;2023-06-22T07:49:35;10.70;;;9.10;;
45033;SDS011;30771;47.988;-4.186;2023-06-22T07:52:01;12.50;;;8.85;;
45033;SDS011;30771;47.988;-4.186;2023-06-22T07:54:26;8.90;;;8.00;;
45033;SDS011;30771;47.988;-4.186;2023-06-22T07:56:51;10.10;;;8.50;;
45033;SDS011;30771;47.988;-4.186;2023-06-22T07:59:17;10.45;;;7.47;;
45033;SDS011;30771;47.988;-4.186;2023-06-22T08:01:42;10.82;;;7.40;;
45033;SDS011;30771;47.988;-4.186;2023-06-22T08:04:07;9.38;;;8.43;;
45033;SDS011;30771;47.988;-4.186;2023-06-22T08:06:32;12.25;;;7.15;;
45033;SDS011;30771;47.988;-4.186;2023-06-22T08:08:59;8.68;;;7.53;;
45033;SDS011;30771;47.988;-4.186;2023-06-22T08:11:25;8.90;;;7.13;;
45033;SDS011;30771;47.988;-4.186;2023-06-22T08:13:50;6.38;;;5.70;;
45033;SDS011;30771;47.988;-4.186;2023-06-22T08:16:15;6.82;;;6.13;;
45033;SDS011;30771;47.988;-4.186;2023-06-22T08:18:40;10.82;;;6.82;;
45033;SDS011;30771;47.988;-4.186;2023-06-22T08:21:06;6.40;;;5.40;;
45033;SDS011;30771;47.988;-4.186;2023-06-22T08:23:31;6.53;;;5.30;;
45033;SDS011;30771;47.988;-4.186;2023-06-22T08:25:56;6.07;;;5.28;;
45033;SDS011;30771;47.988;-4.186;2023-06-22T08:28:22;6.05;;;4.65;;
45033;SDS011;30771;47.988;-4.186;2023-06-22T08:30:47;5.22;;;4.72;;
45033;SDS011;30771;47.988;-4.186;2023-06-22T08:33:12;7.82;;;4.75;;
45033;SDS011;30771;47.988;-4.186;2023-06-22T08:35:37;5.90;;;5.30;;
45033;SDS011;30771;47.988;-4.186;2023-06-22T08:38:03;5.80;;;5.00;;
45033;SDS011;30771;47.988;-4.186;2023-06-22T08:40:28;6.72;;;4.75;;
45033;SDS011;30771;47.988;-4.186;2023-06-22T08:42:53;5.68;;;4.13;;
45033;SDS011;30771;47.988;-4.186;2023-06-22T08:45:18;5.35;;;4.85;;
45033;SDS011;30771;47.988;-4.186;2023-06-22T08:47:44;6.57;;;4.60;;
45033;SDS011;30771;47.988;-4.186;2023-06-22T08:50:10;6.15;;;4.78;;
45033;SDS011;30771;47.988;-4.186;2023-06-22T08:52:36;5.75;;;5.03;;
45033;SDS011;30771;47.988;-4.186;2023-06-22T08:55:02;6.63;;;5.15;;
45033;SDS011;30771;47.988;-4.186;2023-06-22T08:57:27;5.70;;;4.97;;
45033;SDS011;30771;47.988;-4.186;2023-06-22T08:59:53;5.50;;;4.78;;
45033;SDS011;30771;47.988;-4.186;2023-06-22T09:02:18;5.60;;;4.35;;
45033;SDS011;30771;47.988;-4.186;2023-06-22T09:04:45;7.35;;;4.90;;
45033;SDS011;30771;47.988;-4.186;2023-06-22T09:07:11;6.85;;;4.60;;
45033;SDS011;30771;47.988;-4.186;2023-06-22T09:09:36;5.22;;;4.60;;
45033;SDS011;30771;47.988;-4.186;2023-06-22T09:12:01;7.35;;;5.00;;
45033;SDS011;30771;47.988;-4.186;2023-06-22T09:14:27;5.70;;;4.65;;
45033;SDS011;30771;47.988;-4.186;2023-06-22T09:16:52;6.40;;;4.60;;
45033;SDS011;30771;47.988;-4.186;2023-06-22T09:19:17;5.60;;;4.00;;
45033;SDS011;30771;47.988;-4.186;2023-06-22T09:21:42;6.53;;;4.20;;
45033;SDS011;30771;47.988;-4.186;2023-06-22T09:24:08;5.78;;;3.85;;
45033;SDS011;30771;47.988;-4.186;2023-06-22T09:26:33;5.80;;;3.80;;
45033;SDS011;30771;47.988;-4.186;2023-06-22T09:28:58;6.18;;;3.92;;
45033;SDS011;30771;47.988;-4.186;2023-06-22T09:31:24;5.68;;;4.28;;
45033;SDS011;30771;47.988;-4.186;2023-06-22T09:33:49;7.57;;;4.97;;
45033;SDS011;30771;47.988;-4.186;2023-06-22T09:36:14;5.55;;;3.83;;
45033;SDS011;30771;47.988;-4.186;2023-06-22T09:38:39;5.80;;;3.80;;
45033;SDS011;30771;47.988;-4.186;2023-06-22T09:41:05;7.25;;;4.85;;
45033;SDS011;30771;47.988;-4.186;2023-06-22T09:43:31;6.78;;;4.90;;
45033;SDS011;30771;47.988;-4.186;2023-06-22T09:45:57;4.45;;;4.00;;
45033;SDS011;30771;47.988;-4.186;2023-06-22T09:48:22;5.85;;;4.13;;
45033;SDS011;30771;47.988;-4.186;2023-06-22T09:50:47;5.00;;;4.22;;
45033;SDS011;30771;47.988;-4.186;2023-06-22T09:53:13;6.70;;;4.00;;
45033;SDS011;30771;47.988;-4.186;2023-06-22T09:55:38;6.97;;;4.75;;
45033;SDS011;30771;47.988;-4.186;2023-06-22T09:58:03;8.98;;;5.97;;
45033;SDS011;30771;47.988;-4.186;2023-06-22T10:00:29;7.88;;;5.93;;
45033;SDS011;30771;47.988;-4.186;2023-06-22T10:02:54;8.60;;;6.00;;
45033;SDS011;30771;47.988;-4.186;2023-06-22T10:05:19;6.57;;;5.70;;
45033;SDS011;30771;47.988;-4.186;2023-06-22T10:07:44;8.25;;;5.80;;
45033;SDS011;30771;47.988;-4.186;2023-06-22T10:10:10;6.93;;;5.68;;
45033;SDS011;30771;47.988;-4.186;2023-06-22T10:12:37;8.18;;;6.20;;
45033;SDS011;30771;47.988;-4.186;2023-06-22T10:15:06;6.68;;;5.30;;
45033;SDS011;30771;47.988;-4.186;2023-06-22T10:17:32;7.78;;;5.25;;
45033;SDS011;30771;47.988;-4.186;2023-06-22T10:19:57;9.07;;;5.80;;
45033;SDS011;30771;47.988;-4.186;2023-06-22T10:22:22;7.03;;;4.78;;
45033;SDS011;30771;47.988;-4.186;2023-06-22T10:24:47;5.80;;;5.22;;
45033;SDS011;30771;47.988;-4.186;2023-06-22T10:27:13;5.80;;;4.90;;
45033;SDS011;30771;47.988;-4.186;2023-06-22T10:29:38;6.63;;;5.32;;
45033;SDS011;30771;47.988;-4.186;2023-06-22T10:32:03;5.35;;;4.70;;
45033;SDS011;30771;47.988;-4.186;2023-06-22T10:34:29;4.95;;;4.20;;
45033;SDS011;30771;47.988;-4.186;2023-06-22T10:36:54;4.85;;;4.38;;
45033;SDS011;30771;47.988;-4.186;2023-06-22T10:39:19;5.05;;;4.55;;
45033;SDS011;30771;47.988;-4.186;2023-06-22T10:41:45;6.43;;;5.18;;
45033;SDS011;30771;47.988;-4.186;2023-06-22T10:44:10;6.38;;;4.20;;
45033;SDS011;30771;47.988;-4.186;2023-06-22T10:46:35;7.00;;;4.10;;
45033;SDS011;30771;47.988;-4.186;2023-06-22T10:49:01;6.43;;;4.13;;
45033;SDS011;30771;47.988;-4.186;2023-06-22T10:51:26;6.47;;;4.28;;
45033;SDS011;30771;47.988;-4.186;2023-06-22T10:53:51;5.70;;;3.83;;
45033;SDS011;30771;47.988;-4.186;2023-06-22T10:56:17;5.43;;;3.83;;
45033;SDS011;30771;47.988;-4.186;2023-06-22T10:58:44;3.67;;;3.20;;
45033;SDS011;30771;47.988;-4.186;2023-06-22T11:01:10;4.25;;;3.35;;
45033;SDS011;30771;47.988;-4.186;2023-06-22T11:03:35;4.43;;;3.45;;
45033;SDS011;30771;47.988;-4.186;2023-06-22T11:06:00;5.88;;;3.80;;
45033;SDS011;30771;47.988;-4.186;2023-06-22T11:08:26;3.65;;;3.30;;
45033;SDS011;30771;47.988;-4.186;2023-06-22T11:10:51;4.10;;;3.70;;
45033;SDS011;30771;47.988;-4.186;2023-06-22T11:13:17;4.35;;;3.13;;
45033;SDS011;30771;47.988;-4.186;2023-06-22T11:15:42;3.97;;;3.17;;
45033;SDS011;30771;47.988;-4.186;2023-06-22T11:18:07;5.15;;;3.30;;
45033;SDS011;30771;47.988;-4.186;2023-06-22T11:20:33;4.45;;;3.20;;
45033;SDS011;30771;47.988;-4.186;2023-06-22T11:22:58;4.72;;;3.40;;
45033;SDS011;30771;47.988;-4.186;2023-06-22T11:25:24;3.90;;;3.15;;
45033;SDS011;30771;47.988;-4.186;2023-06-22T11:27:49;5.88;;;3.42;;
45033;SDS011;30771;47.988;-4.186;2023-06-22T11:30:14;4.82;;;3.25;;
45033;SDS011;30771;47.988;-4.186;2023-06-22T11:32:40;4.93;;;3.13;;
45033;SDS011;30771;47.988;-4.186;2023-06-22T11:35:05;4.43;;;3.33;;
45033;SDS011;30771;47.988;-4.186;2023-06-22T11:37:30;5.82;;;3.13;;
45033;SDS011;30771;47.988;-4.186;2023-06-22T11:39:56;6.07;;;2.85;;
45033;SDS011;30771;47.988;-4.186;2023-06-22T11:42:21;4.13;;;3.38;;
45033;SDS011;30771;47.988;-4.186;2023-06-22T11:44:46;4.75;;;3.55;;
45033;SDS011;30771;47.988;-4.186;2023-06-22T11:47:12;4.85;;;3.58;;
45033;SDS011;30771;47.988;-4.186;2023-06-22T11:49:37;3.63;;;3.05;;
45033;SDS011;30771;47.988;-4.186;2023-06-22T11:52:02;6.80;;;2.83;;
45033;SDS011;30771;47.988;-4.186;2023-06-22T11:54:28;4.57;;;3.15;;
45033;SDS011;30771;47.988;-4.186;2023-06-22T11:56:53;4.28;;;3.40;;
45033;SDS011;30771;47.988;-4.186;2023-06-22T11:59:18;4.93;;;3.35;;
45033;SDS011;30771;47.988;-4.186;2023-06-22T12:01:43;5.15;;;3.53;;
45033;SDS011;30771;47.988;-4.186;2023-06-22T12:04:09;6.07;;;3.72;;
45033;SDS011;30771;47.988;-4.186;2023-06-22T12:06:35;4.88;;;3.00;;
45033;SDS011;30771;47.988;-4.186;2023-06-22T12:09:02;5.18;;;3.03;;
45033;SDS011;30771;47.988;-4.186;2023-06-22T12:11:27;4.00;;;3.38;;
45033;SDS011;30771;47.988;-4.186;2023-06-22T12:13:53;3.83;;;2.75;;
45033;SDS011;30771;47.988;-4.186;2023-06-22T12:16:18;3.85;;;2.45;;
45033;SDS011;30771;47.988;-4.186;2023-06-22T12:18:43;2.92;;;2.60;;
45033;SDS011;30771;47.988;-4.186;2023-06-22T12:21:08;3.22;;;2.42;;
45033;SDS011;30771;47.988;-4.186;2023-06-22T12:23:34;4.43;;;2.75;;
45033;SDS011;30771;47.988;-4.186;2023-06-22T12:25:59;4.18;;;3.17;;
45033;SDS011;30771;47.988;-4.186;2023-06-22T12:28:24;3.90;;;2.70;;
45033;SDS011;30771;47.988;-4.186;2023-06-22T12:30:50;5.35;;;2.53;;
45033;SDS011;30771;47.988;-4.186;2023-06-22T12:33:15;4.60;;;3.00;;
45033;SDS011;30771;47.988;-4.186;2023-06-22T12:35:40;3.97;;;2.70;;
45033;SDS011;30771;47.988;-4.186;2023-06-22T12:38:05;5.60;;;2.70;;
45033;SDS011;30771;47.988;-4.186;2023-06-22T12:40:31;3.63;;;2.63;;
45033;SDS011;30771;47.988;-4.186;2023-06-22T12:42:56;4.20;;;2.67;;
45033;SDS011;30771;47.988;-4.186;2023-06-22T12:45:21;4.28;;;2.70;;
45033;SDS011;30771;47.988;-4.186;2023-06-22T12:47:46;4.97;;;2.67;;
45033;SDS011;30771;47.988;-4.186;2023-06-22T12:50:12;3.28;;;2.20;;
45033;SDS011;30771;47.988;-4.186;2023-06-22T12:52:37;3.03;;;2.47;;
45033;SDS011;30771;47.988;-4.186;2023-06-22T12:55:04;4.60;;;2.33;;
45033;SDS011;30771;47.988;-4.186;2023-06-22T12:57:29;4.18;;;2.33;;
45033;SDS011;30771;47.988;-4.186;2023-06-22T12:59:55;3.22;;;2.13;;
45033;SDS011;30771;47.988;-4.186;2023-06-22T13:02:20;2.40;;;2.10;;
45033;SDS011;30771;47.988;-4.186;2023-06-22T13:04:45;3.90;;;2.20;;
45033;SDS011;30771;47.988;-4.186;2023-06-22T13:07:11;3.30;;;2.50;;
45033;SDS011;30771;47.988;-4.186;2023-06-22T13:09:36;3.03;;;2.10;;
45033;SDS011;30771;47.988;-4.186;2023-06-22T13:12:02;3.58;;;2.13;;
45033;SDS011;30771;47.988;-4.186;2023-06-22T13:14:27;4.13;;;2.42;;
45033;SDS011;30771;47.988;-4.186;2023-06-22T13:16:52;2.83;;;1.92;;
45033;SDS011;30771;47.988;-4.186;2023-06-22T13:19:17;3.40;;;2.20;;
45033;SDS011;30771;47.988;-4.186;2023-06-22T13:21:43;4.57;;;2.70;;
45033;SDS011;30771;47.988;-4.186;2023-06-22T13:24:08;3.47;;;2.63;;
45033;SDS011;30771;47.988;-4.186;2023-06-22T13:26:33;2.97;;;2.50;;
45033;SDS011;30771;47.988;-4.186;2023-06-22T13:28:59;3.90;;;2.53;;
45033;SDS011;30771;47.988;-4.186;2023-06-22T13:31:24;3.55;;;2.40;;
45033;SDS011;30771;47.988;-4.186;2023-06-22T13:33:49;3.92;;;2.40;;
45033;SDS011;30771;47.988;-4.186;2023-06-22T13:36:14;3.08;;;2.00;;
45033;SDS011;30771;47.988;-4.186;2023-06-22T13:38:40;2.35;;;2.15;;
45033;SDS011;30771;47.988;-4.186;2023-06-22T13:41:05;2.70;;;2.05;;
45033;SDS011;30771;47.988;-4.186;2023-06-22T13:43:31;3.58;;;2.53;;
45033;SDS011;30771;47.988;-4.186;2023-06-22T13:45:56;3.45;;;2.38;;
45033;SDS011;30771;47.988;-4.186;2023-06-22T13:48:21;4.72;;;2.30;;
45033;SDS011;30771;47.988;-4.186;2023-06-22T13:50:46;3.17;;;2.45;;
45033;SDS011;30771;47.988;-4.186;2023-06-22T13:53:12;4.70;;;2.50;;
45033;SDS011;30771;47.988;-4.186;2023-06-22T13:55:37;3.63;;;2.90;;
45033;SDS011;30771;47.988;-4.186;2023-06-22T13:58:02;3.45;;;2.30;;
45033;SDS011;30771;47.988;-4.186;2023-06-22T14:00:27;3.58;;;2.50;;
45033;SDS011;30771;47.988;-4.186;2023-06-22T14:02:53;2.67;;;2.38;;
45033;SDS011;30771;47.988;-4.186;2023-06-22T14:05:19;5.15;;;2.60;;
45033;SDS011;30771;47.988;-4.186;2023-06-22T14:07:44;3.33;;;2.50;;
45033;SDS011;30771;47.988;-4.186;2023-06-22T14:10:10;4.97;;;2.58;;
45033;SDS011;30771;47.988;-4.186;2023-06-22T14:12:36;3.65;;;2.55;;
45033;SDS011;30771;47.988;-4.186;2023-06-22T14:15:01;8.40;;;2.67;;
45033;SDS011;30771;47.988;-4.186;2023-06-22T14:17:26;4.13;;;2.40;;
45033;SDS011;30771;47.988;-4.186;2023-06-22T14:19:52;4.18;;;2.63;;
45033;SDS011;30771;47.988;-4.186;2023-06-22T14:22:18;3.90;;;2.60;;
45033;SDS011;30771;47.988;-4.186;2023-06-22T14:24:44;3.83;;;2.55;;
45033;SDS011;30771;47.988;-4.186;2023-06-22T14:27:09;3.70;;;2.40;;
45033;SDS011;30771;47.988;-4.186;2023-06-22T14:29:35;3.03;;;2.60;;
45033;SDS011;30771;47.988;-4.186;2023-06-22T14:32:00;5.78;;;2.58;;
45033;SDS011;30771;47.988;-4.186;2023-06-22T14:34:25;5.03;;;2.70;;
45033;SDS011;30771;47.988;-4.186;2023-06-22T14:36:51;5.47;;;2.60;;
45033;SDS011;30771;47.988;-4.186;2023-06-22T14:39:16;5.75;;;2.72;;
45033;SDS011;30771;47.988;-4.186;2023-06-22T14:41:41;6.00;;;2.90;;
45033;SDS011;30771;47.988;-4.186;2023-06-22T14:44:07;6.15;;;2.70;;
45033;SDS011;30771;47.988;-4.186;2023-06-22T14:46:32;5.50;;;2.42;;
45033;SDS011;30771;47.988;-4.186;2023-06-22T14:48:57;5.35;;;2.88;;
45033;SDS011;30771;47.988;-4.186;2023-06-22T14:51:22;7.50;;;2.88;;
45033;SDS011;30771;47.988;-4.186;2023-06-22T14:53:48;5.43;;;2.80;;
45033;SDS011;30771;47.988;-4.186;2023-06-22T14:56:13;3.47;;;2.50;;
45033;SDS011;30771;47.988;-4.186;2023-06-22T14:58:40;6.30;;;2.78;;
45033;SDS011;30771;47.988;-4.186;2023-06-22T15:01:06;6.40;;;2.80;;
45033;SDS011;30771;47.988;-4.186;2023-06-22T15:03:31;5.30;;;3.05;;
45033;SDS011;30771;47.988;-4.186;2023-06-22T15:05:56;3.42;;;2.40;;
45033;SDS011;30771;47.988;-4.186;2023-06-22T15:08:22;4.05;;;2.92;;
45033;SDS011;30771;47.988;-4.186;2023-06-22T15:10:47;5.03;;;2.28;;
45033;SDS011;30771;47.988;-4.186;2023-06-22T15:13:12;6.88;;;2.60;;
45033;SDS011;30771;47.988;-4.186;2023-06-22T15:15:38;3.85;;;2.30;;
45033;SDS011;30771;47.988;-4.186;2023-06-22T15:18:03;2.80;;;2.40;;
45033;SDS011;30771;47.988;-4.186;2023-06-22T15:20:28;5.18;;;2.90;;
45033;SDS011;30771;47.988;-4.186;2023-06-22T15:22:54;5.13;;;2.60;;
45033;SDS011;30771;47.988;-4.186;2023-06-22T15:25:19;5.40;;;2.65;;
45033;SDS011;30771;47.988;-4.186;2023-06-22T15:27:44;4.90;;;2.72;;
45033;SDS011;30771;47.988;-4.186;2023-06-22T15:30:10;3.97;;;2.55;;
45033;SDS011;30771;47.988;-4.186;2023-06-22T15:32:35;6.15;;;2.50;;
45033;SDS011;30771;47.988;-4.186;2023-06-22T15:35:01;3.17;;;2.50;;
45033;SDS011;30771;47.988;-4.186;2023-06-22T15:37:26;6.00;;;2.65;;
45033;SDS011;30771;47.988;-4.186;2023-06-22T15:39:51;3.55;;;2.53;;
45033;SDS011;30771;47.988;-4.186;2023-06-22T15:42:17;3.80;;;2.10;;
45033;SDS011;30771;47.988;-4.186;2023-06-22T15:44:42;4.63;;;2.80;;
45033;SDS011;30771;47.988;-4.186;2023-06-22T15:47:07;4.03;;;2.40;;
45033;SDS011;30771;47.988;-4.186;2023-06-22T15:49:32;3.85;;;2.60;;
45033;SDS011;30771;47.988;-4.186;2023-06-22T15:51:58;3.70;;;2.75;;
45033;SDS011;30771;47.988;-4.186;2023-06-22T15:54:23;6.05;;;2.63;;
45033;SDS011;30771;47.988;-4.186;2023-06-22T15:56:48;7.00;;;2.50;;
45033;SDS011;30771;47.988;-4.186;2023-06-22T15:59:14;5.82;;;2.50;;
45033;SDS011;30771;47.988;-4.186;2023-06-22T16:01:39;5.65;;;2.72;;
45033;SDS011;30771;47.988;-4.186;2023-06-22T16:04:04;4.07;;;2.72;;
45033;SDS011;30771;47.988;-4.186;2023-06-22T16:06:29;4.70;;;3.00;;
45033;SDS011;30771;47.988;-4.186;2023-06-22T16:08:55;5.95;;;3.20;;
45033;SDS011;30771;47.988;-4.186;2023-06-22T16:11:20;3.60;;;2.58;;
45033;SDS011;30771;47.988;-4.186;2023-06-22T16:13:45;6.75;;;3.20;;
45033;SDS011;30771;47.988;-4.186;2023-06-22T16:16:11;4.05;;;2.92;;
45033;SDS011;30771;47.988;-4.186;2023-06-22T16:18:37;7.43;;;3.05;;
45033;SDS011;30771;47.988;-4.186;2023-06-22T16:21:02;3.70;;;2.90;;
45033;SDS011;30771;47.988;-4.186;2023-06-22T16:23:27;7.22;;;2.88;;
45033;SDS011;30771;47.988;-4.186;2023-06-22T16:25:53;4.90;;;2.72;;
45033;SDS011;30771;47.988;-4.186;2023-06-22T16:28:18;4.57;;;2.90;;
45033;SDS011;30771;47.988;-4.186;2023-06-22T16:30:43;4.00;;;2.58;;
45033;SDS011;30771;47.988;-4.186;2023-06-22T16:33:08;5.00;;;2.70;;
45033;SDS011;30771;47.988;-4.186;2023-06-22T16:35:34;6.70;;;3.08;;
45033;SDS011;30771;47.988;-4.186;2023-06-22T16:37:59;4.03;;;3.10;;
45033;SDS011;30771;47.988;-4.186;2023-06-22T16:40:24;6.45;;;2.92;;
45033;SDS011;30771;47.988;-4.186;2023-06-22T16:42:50;3.25;;;2.70;;
45033;SDS011;30771;47.988;-4.186;2023-06-22T16:45:16;5.53;;;2.97;;
45033;SDS011;30771;47.988;-4.186;2023-06-22T16:47:42;7.60;;;2.90;;
45033;SDS011;30771;47.988;-4.186;2023-06-22T16:50:08;4.45;;;3.00;;
45033;SDS011;30771;47.988;-4.186;2023-06-22T16:52:34;4.35;;;2.72;;
45033;SDS011;30771;47.988;-4.186;2023-06-22T16:55:00;5.55;;;2.60;;
45033;SDS011;30771;47.988;-4.186;2023-06-22T16:57:25;5.15;;;2.83;;
45033;SDS011;30771;47.988;-4.186;2023-06-22T16:59:54;4.00;;;2.50;;
45033;SDS011;30771;47.988;-4.186;2023-06-22T17:02:20;4.55;;;2.70;;
45033;SDS011;30771;47.988;-4.186;2023-06-22T17:04:48;6.90;;;2.58;;
45033;SDS011;30771;47.988;-4.186;2023-06-22T17:07:18;5.35;;;2.60;;
45033;SDS011;30771;47.988;-4.186;2023-06-22T17:09:48;5.03;;;2.58;;
45033;SDS011;30771;47.988;-4.186;2023-06-22T17:12:15;3.47;;;2.63;;
45033;SDS011;30771;47.988;-4.186;2023-06-22T17:14:42;4.35;;;2.72;;
45033;SDS011;30771;47.988;-4.186;2023-06-22T17:17:07;3.65;;;2.75;;
45033;SDS011;30771;47.988;-4.186;2023-06-22T17:19:34;3.83;;;2.40;;
45033;SDS011;30771;47.988;-4.186;2023-06-22T17:21:59;4.75;;;2.60;;
45033;SDS011;30771;47.988;-4.186;2023-06-22T17:24:24;5.55;;;2.50;;
45033;SDS011;30771;47.988;-4.186;2023-06-22T17:26:53;4.60;;;2.42;;
45033;SDS011;30771;47.988;-4.186;2023-06-22T17:29:20;4.78;;;2.28;;
45033;SDS011;30771;47.988;-4.186;2023-06-22T17:31:46;3.75;;;2.42;;
45033;SDS011;30771;47.988;-4.186;2023-06-22T17:34:12;3.05;;;2.30;;
45033;SDS011;30771;47.988;-4.186;2023-06-22T17:36:45;3.83;;;2.72;;
45033;SDS011;30771;47.988;-4.186;2023-06-22T17:39:17;3.38;;;2.47;;
45033;SDS011;30771;47.988;-4.186;2023-06-22T17:41:44;4.65;;;2.40;;
45033;SDS011;30771;47.988;-4.186;2023-06-22T17:44:10;3.05;;;2.20;;
45033;SDS011;30771;47.988;-4.186;2023-06-22T17:46:36;4.55;;;2.70;;
45033;SDS011;30771;47.988;-4.186;2023-06-22T17:49:06;4.05;;;2.70;;
45033;SDS011;30771;47.988;-4.186;2023-06-22T17:51:32;4.50;;;2.35;;
45033;SDS011;30771;47.988;-4.186;2023-06-22T17:53:57;3.83;;;2.80;;
45033;SDS011;30771;47.988;-4.186;2023-06-22T17:56:23;3.90;;;2.47;;
45033;SDS011;30771;47.988;-4.186;2023-06-22T17:58:49;3.75;;;2.60;;
45033;SDS011;30771;47.988;-4.186;2023-06-22T18:01:15;4.60;;;2.83;;
45033;SDS011;30771;47.988;-4.186;2023-06-22T18:03:41;2.95;;;2.63;;
45033;SDS011;30771;47.988;-4.186;2023-06-22T18:06:08;5.95;;;2.90;;
45033;SDS011;30771;47.988;-4.186;2023-06-22T18:08:34;5.22;;;2.83;;
45033;SDS011;30771;47.988;-4.186;2023-06-22T18:11:01;5.47;;;3.40;;
45033;SDS011;30771;47.988;-4.186;2023-06-22T18:13:31;4.43;;;2.97;;
45033;SDS011;30771;47.988;-4.186;2023-06-22T18:15:56;3.60;;;2.70;;
45033;SDS011;30771;47.988;-4.186;2023-06-22T18:18:22;5.15;;;2.90;;
45033;SDS011;30771;47.988;-4.186;2023-06-22T18:20:47;4.18;;;2.85;;
45033;SDS011;30771;47.988;-4.186;2023-06-22T18:23:13;4.38;;;2.75;;
45033;SDS011;30771;47.988;-4.186;2023-06-22T18:25:39;5.75;;;2.70;;
45033;SDS011;30771;47.988;-4.186;2023-06-22T18:28:05;4.97;;;3.17;;
45033;SDS011;30771;47.988;-4.186;2023-06-22T18:30:31;4.82;;;2.90;;
45033;SDS011;30771;47.988;-4.186;2023-06-22T18:32:56;6.32;;;2.83;;
45033;SDS011;30771;47.988;-4.186;2023-06-22T18:35:22;3.40;;;2.85;;
45033;SDS011;30771;47.988;-4.186;2023-06-22T18:37:47;4.32;;;2.63;;
45033;SDS011;30771;47.988;-4.186;2023-06-22T18:40:14;6.07;;;3.13;;
45033;SDS011;30771;47.988;-4.186;2023-06-22T18:42:43;3.85;;;2.97;;
45033;SDS011;30771;47.988;-4.186;2023-06-22T18:45:25;5.25;;;2.95;;
45033;SDS011;30771;47.988;-4.186;2023-06-22T18:47:55;5.43;;;2.85;;
45033;SDS011;30771;47.988;-4.186;2023-06-22T18:51:02;4.35;;;3.08;;
45033;SDS011;30771;47.988;-4.186;2023-06-22T18:53:35;3.65;;;2.95;;
45033;SDS011;30771;47.988;-4.186;2023-06-22T18:56:14;6.13;;;3.47;;
45033;SDS011;30771;47.988;-4.186;2023-06-22T18:58:40;6.30;;;3.42;;
45033;SDS011;30771;47.988;-4.186;2023-06-22T19:01:15;4.18;;;3.60;;
45033;SDS011;30771;47.988;-4.186;2023-06-22T19:03:42;6.47;;;3.83;;
45033;SDS011;30771;47.988;-4.186;2023-06-22T19:06:07;6.65;;;3.40;;
45033;SDS011;30771;47.988;-4.186;2023-06-22T19:09:18;4.82;;;3.20;;
45033;SDS011;30771;47.988;-4.186;2023-06-22T19:11:36;6.15;;;3.45;;
45033;SDS011;30771;47.988;-4.186;2023-06-22T19:14:02;6.40;;;3.10;;
45033;SDS011;30771;47.988;-4.186;2023-06-22T19:16:31;5.15;;;3.33;;
45033;SDS011;30771;47.988;-4.186;2023-06-22T19:18:57;5.00;;;3.50;;
45033;SDS011;30771;47.988;-4.186;2023-06-22T19:21:25;6.20;;;3.90;;
45033;SDS011;30771;47.988;-4.186;2023-06-22T19:23:51;6.72;;;4.18;;
45033;SDS011;30771;47.988;-4.186;2023-06-22T19:26:19;4.95;;;3.80;;
45033;SDS011;30771;47.988;-4.186;2023-06-22T19:28:48;5.10;;;3.78;;
45033;SDS011;30771;47.988;-4.186;2023-06-22T19:31:14;4.78;;;3.83;;
45033;SDS011;30771;47.988;-4.186;2023-06-22T19:33:40;5.57;;;4.05;;
45033;SDS011;30771;47.988;-4.186;2023-06-22T19:36:05;4.65;;;3.90;;
45033;SDS011;30771;47.988;-4.186;2023-06-22T19:38:31;4.00;;;3.60;;
45033;SDS011;30771;47.988;-4.186;2023-06-22T19:40:56;6.30;;;4.03;;
45033;SDS011;30771;47.988;-4.186;2023-06-22T19:43:26;6.20;;;3.97;;
45033;SDS011;30771;47.988;-4.186;2023-06-22T19:45:55;5.80;;;4.20;;
45033;SDS011;30771;47.988;-4.186;2023-06-22T19:48:25;7.28;;;4.72;;
45033;SDS011;30771;47.988;-4.186;2023-06-22T19:50:52;4.72;;;4.13;;
45033;SDS011;30771;47.988;-4.186;2023-06-22T19:53:18;6.30;;;4.28;;
45033;SDS011;30771;47.988;-4.186;2023-06-22T19:55:47;8.07;;;4.28;;
45033;SDS011;30771;47.988;-4.186;2023-06-22T19:58:17;5.65;;;4.30;;
45033;SDS011;30771;47.988;-4.186;2023-06-22T20:00:45;8.50;;;4.60;;
45033;SDS011;30771;47.988;-4.186;2023-06-22T20:03:15;6.22;;;4.32;;
45033;SDS011;30771;47.988;-4.186;2023-06-22T20:05:42;5.65;;;4.68;;
45033;SDS011;30771;47.988;-4.186;2023-06-22T20:08:12;4.93;;;4.25;;
45033;SDS011;30771;47.988;-4.186;2023-06-22T20:10:38;5.78;;;4.93;;
45033;SDS011;30771;47.988;-4.186;2023-06-22T20:13:09;7.40;;;5.00;;
45033;SDS011;30771;47.988;-4.186;2023-06-22T20:15:44;7.30;;;5.63;;
45033;SDS011;30771;47.988;-4.186;2023-06-22T20:18:12;7.07;;;5.43;;
45033;SDS011;30771;47.988;-4.186;2023-06-22T20:20:42;6.88;;;5.32;;
45033;SDS011;30771;47.988;-4.186;2023-06-22T20:23:11;8.07;;;5.90;;
45033;SDS011;30771;47.988;-4.186;2023-06-22T20:25:42;8.07;;;6.40;;